Time;durP1;ratioP1;P1;durP2;ratioP2;P2;SDS_P1;SDS_P2;PMS_P1;PMS_P2;Temp;Humidity;BMP_temperature;BMP_pressure;BME280_temperature;BME280_humidity;BME280_pressure;Samples;Min_cycle;Max_cycle;Signal;HPM_P1;HPM_P2
2021/12/22 00:06:47;;;;;;;10.02;4.07;;;-0.30;99.90;;;;;;20579723;28;20092;-44
2021/12/22 00:16:48;;;;;;;10.18;4.20;;;-0.30;99.90;;;;;;20576289;28;20167;-44
2021/12/22 00:26:49;;;;;;;20.38;4.35;;;-0.50;99.90;;;;;;20577213;28;20038;-44
2021/12/22 00:36:50;;;;;;;12.95;3.22;;;-0.50;99.90;;;;;;20571962;28;20153;-44
2021/12/22 00:46:51;;;;;;;8.15;3.78;;;-0.60;99.90;;;;;;20577479;28;20069;-44
2021/12/22 00:57:00;;;;;;;6.63;3.90;;;-0.70;99.90;;;;;;20575009;28;20598;-45
2021/12/22 01:07:03;;;;;;;10.52;2.95;;;-0.60;99.90;;;;;;20572220;28;20455;-44
2021/12/22 01:17:05;;;;;;;11.75;4.50;;;-0.60;99.90;;;;;;20576218;28;20137;-44
2021/12/22 01:27:10;;;;;;;9.68;3.85;;;-0.70;99.90;;;;;;20579252;28;20218;-44
2021/12/22 01:37:11;;;;;;;16.48;4.65;;;-0.70;99.90;;;;;;20577376;28;20541;-44
2021/12/22 01:57:42;;;;;;;11.00;3.20;;;-0.80;99.90;;;;;;20575017;28;20084;-44
2021/12/22 02:07:43;;;;;;;6.70;3.05;;;-0.80;99.90;;;;;;20570009;28;20141;-44
2021/12/22 02:17:45;;;;;;;8.35;3.28;;;-0.80;99.90;;;;;;20570318;28;21147;-44
2021/12/22 02:27:53;;;;;;;12.27;4.07;;;-0.90;99.90;;;;;;20571648;28;20679;-44
2021/12/22 02:37:55;;;;;;;11.45;3.42;;;-1.00;99.90;;;;;;20583477;28;20057;-44
2021/12/22 02:47:56;;;;;;;10.63;4.07;;;-1.00;99.90;;;;;;20590353;28;20058;-44
2021/12/22 02:58:01;;;;;;;7.45;3.55;;;-1.10;99.90;;;;;;20633547;28;20073;-44
2021/12/22 03:08:03;;;;;;;9.98;3.67;;;-1.10;99.90;;;;;;20588289;28;20839;-44
2021/12/22 03:18:06;;;;;;;10.32;4.20;;;-1.20;99.90;;;;;;20595048;28;20285;-44
2021/12/22 03:28:07;;;;;;;7.85;3.72;;;-1.20;99.90;;;;;;20652264;28;20053;-44
2021/12/22 03:38:10;;;;;;;6.28;3.22;;;-1.40;99.90;;;;;;20648641;28;20716;-44
2021/12/22 03:48:12;;;;;;;11.10;3.95;;;-1.50;99.90;;;;;;20650857;28;20049;-44
2021/12/22 03:58:13;;;;;;;8.27;3.72;;;-1.50;99.90;;;;;;20651236;28;20667;-44
2021/12/22 04:08:18;;;;;;;10.15;3.67;;;-1.40;99.90;;;;;;20655101;28;20053;-44
2021/12/22 04:18:19;;;;;;;8.77;4.03;;;-1.40;99.90;;;;;;20656620;28;20608;-44
2021/12/22 04:28:21;;;;;;;19.85;5.22;;;-1.30;99.90;;;;;;20660071;28;20131;-44
2021/12/22 04:38:22;;;;;;;7.25;3.63;;;-1.10;99.90;;;;;;20656274;28;20421;-44
2021/12/22 04:48:24;;;;;;;9.13;3.78;;;-1.00;99.90;;;;;;20653238;28;20046;-44
2021/12/22 04:58:25;;;;;;;6.38;2.83;;;-1.00;99.90;;;;;;20657822;28;20037;-44
2021/12/22 05:08:26;;;;;;;16.52;4.65;;;-1.00;99.90;;;;;;20649001;28;20438;-44
2021/12/22 05:18:49;;;;;;;8.73;4.03;;;-1.10;99.90;;;;;;20644269;28;20487;-44
2021/12/22 05:28:49;;;;;;;7.90;4.15;;;-0.90;99.90;;;;;;20635383;28;20034;-44
2021/12/22 05:38:50;;;;;;;9.73;4.50;;;-1.00;99.90;;;;;;20637034;28;20039;-43
2021/12/22 05:48:52;;;;;;;5.63;3.33;;;-1.00;99.90;;;;;;20636912;28;20046;-44
2021/12/22 05:58:54;;;;;;;18.38;4.75;;;-1.00;99.90;;;;;;20636415;28;20039;-44
2021/12/22 06:08:55;;;;;;;9.50;4.03;;;-1.10;99.90;;;;;;20658213;28;20043;-44
2021/12/22 06:19:01;;;;;;;9.90;4.13;;;-1.10;99.90;;;;;;20655399;28;20037;-44
2021/12/22 06:29:04;;;;;;;9.52;3.22;;;-1.20;99.90;;;;;;20661807;28;20135;-44
2021/12/22 06:39:06;;;;;;;9.52;4.78;;;-1.20;99.90;;;;;;20657177;28;20031;-44
2021/12/22 06:49:08;;;;;;;12.63;4.55;;;-1.20;99.90;;;;;;20663426;28;20426;-44
2021/12/22 06:59:12;;;;;;;8.98;4.60;;;-1.30;99.90;;;;;;20656473;28;20064;-44
2021/12/22 07:09:13;;;;;;;7.93;4.20;;;-1.30;99.90;;;;;;20658649;28;20494;-44
2021/12/22 07:19:15;;;;;;;12.20;4.30;;;-1.30;99.90;;;;;;20658508;28;20050;-44
2021/12/22 07:29:16;;;;;;;11.73;3.72;;;-1.30;99.90;;;;;;20663107;28;20042;-44
2021/12/22 07:39:18;;;;;;;9.27;4.72;;;-1.20;99.90;;;;;;20661335;28;20044;-44
2021/12/22 07:49:19;;;;;;;7.10;3.08;;;-1.30;99.90;;;;;;20667349;28;20045;-44
2021/12/22 07:59:22;;;;;;;5.93;3.60;;;-1.20;99.90;;;;;;20659121;28;20713;-44
2021/12/22 08:09:26;;;;;;;8.77;3.45;;;-1.10;99.90;;;;;;20654852;28;20045;-44
2021/12/22 08:19:27;;;;;;;14.68;4.50;;;-1.20;99.90;;;;;;20656959;28;20034;-44
2021/12/22 08:29:28;;;;;;;14.43;5.20;;;-1.20;99.90;;;;;;20655758;28;20270;-44
2021/12/22 08:39:30;;;;;;;14.20;5.10;;;-1.10;99.90;;;;;;20653882;28;20034;-44
2021/12/22 08:49:31;;;;;;;6.80;3.70;;;-1.10;99.90;;;;;;20655597;28;20045;-44
2021/12/22 08:59:33;;;;;;;12.93;3.92;;;-1.10;99.90;;;;;;20652036;28;20042;-44
2021/12/22 09:09:34;;;;;;;13.25;3.97;;;-1.00;99.90;;;;;;20648768;28;20413;-44
2021/12/22 09:19:36;;;;;;;9.80;4.25;;;-0.90;99.90;;;;;;20652923;28;20398;-44
2021/12/22 09:29:37;;;;;;;8.52;4.97;;;-0.80;99.90;;;;;;20653795;28;20561;-44
2021/12/22 09:39:39;;;;;;;14.77;5.05;;;-0.80;99.90;;;;;;20656635;28;20561;-44
2021/12/22 09:59:41;;;;;;;9.27;4.40;;;-0.40;99.90;;;;;;20678369;28;20038;-44
2021/12/22 10:09:45;;;;;;;12.50;4.32;;;-0.30;99.90;;;;;;20665128;28;20048;-44
2021/12/22 10:19:48;;;;;;;19.45;5.38;;;-0.20;99.90;;;;;;20657185;28;20038;-44
2021/12/22 10:29:49;;;;;;;8.13;4.03;;;0.10;99.90;;;;;;20655350;28;20041;-44
2021/12/22 10:39:50;;;;;;;11.73;4.57;;;0.50;99.90;;;;;;20649930;28;20034;-44
2021/12/22 10:50:03;;;;;;;7.72;4.82;;;0.80;99.90;;;;;;20649167;28;20061;-44
2021/12/22 11:00:17;;;;;;;11.02;4.93;;;1.20;99.90;;;;;;20649119;28;20365;-44
2021/12/22 11:10:29;;;;;;;12.80;4.70;;;1.90;99.90;;;;;;20650606;28;20058;-44
2021/12/22 11:20:31;;;;;;;10.55;4.40;;;2.30;99.90;;;;;;20633692;28;20033;-44
2021/12/22 11:30:32;;;;;;;10.88;4.03;;;2.30;99.90;;;;;;20619781;28;20750;-44
2021/12/22 11:40:33;;;;;;;9.02;3.70;;;2.40;99.90;;;;;;20614671;28;20038;-44
2021/12/22 11:50:35;;;;;;;11.05;3.92;;;2.60;99.90;;;;;;20629335;28;20044;-44
2021/12/22 12:00:37;;;;;;;8.45;3.28;;;2.50;99.90;;;;;;20654073;28;20084;-44
2021/12/22 12:10:44;;;;;;;14.50;4.00;;;2.30;99.90;;;;;;20653172;28;20497;-44
2021/12/22 12:21:40;;;;;;;8.07;2.80;;;2.20;99.90;;;;;;20656491;28;20511;-44
2021/12/22 12:31:41;;;;;;;8.52;3.85;;;2.60;99.90;;;;;;20655160;28;20048;-44
2021/12/22 12:42:00;;;;;;;7.10;3.23;;;3.00;99.90;;;;;;20651479;28;20036;-44
2021/12/22 12:52:06;;;;;;;7.75;3.03;;;2.80;99.90;;;;;;20655670;28;21328;-44
2021/12/22 13:02:09;;;;;;;6.80;2.90;;;2.70;99.90;;;;;;20655770;28;20041;-43
2021/12/22 13:13:14;;;;;;;11.30;3.35;;;2.50;99.90;;;;;;20651927;28;20051;-43
2021/12/22 13:22:41;;;;;;;8.55;3.47;;;2.40;99.90;;;;;;20650418;28;20280;-43
2021/12/22 13:33:11;;;;;;;13.98;4.82;;;2.20;99.90;;;;;;20651040;28;20034;-44
2021/12/22 13:43:27;;;;;;;7.85;3.42;;;2.20;99.90;;;;;;20644203;28;20416;-44
2021/12/22 13:53:30;;;;;;;9.00;3.55;;;2.10;99.90;;;;;;20649188;28;20042;-44
2021/12/22 14:03:31;;;;;;;8.30;3.58;;;2.00;99.90;;;;;;20639175;28;20054;-44
2021/12/22 14:13:32;;;;;;;9.80;3.78;;;2.00;99.90;;;;;;20641139;28;20050;-43
2021/12/22 14:23:33;;;;;;;9.85;3.70;;;1.90;99.90;;;;;;20640944;28;20038;-44
2021/12/22 14:33:35;;;;;;;7.95;3.60;;;1.70;99.90;;;;;;20658609;28;20045;-44
2021/12/22 14:43:47;;;;;;;11.68;3.55;;;1.60;99.90;;;;;;20658139;28;20042;-44
2021/12/22 14:54:00;;;;;;;9.90;3.75;;;1.60;99.90;;;;;;20659487;28;20038;-43
2021/12/22 15:04:02;;;;;;;8.95;3.17;;;1.50;99.90;;;;;;20653204;28;21131;-44
2021/12/22 15:14:05;;;;;;;11.30;3.83;;;1.40;99.90;;;;;;20658360;28;20031;-44
2021/12/22 15:24:06;;;;;;;8.43;3.22;;;1.30;99.90;;;;;;20655579;28;20034;-44
2021/12/22 15:34:07;;;;;;;9.38;4.95;;;1.40;99.90;;;;;;20644257;28;20394;-43
2021/12/22 15:44:08;;;;;;;9.70;4.05;;;1.20;99.90;;;;;;20648938;28;20038;-44
2021/12/22 15:54:10;;;;;;;8.23;4.25;;;1.10;99.90;;;;;;20650311;28;20035;-43
2021/12/22 16:04:11;;;;;;;9.23;3.63;;;1.10;99.90;;;;;;20650556;28;20053;-44
2021/12/22 16:14:12;;;;;;;9.82;3.95;;;1.10;99.90;;;;;;20646680;28;20129;-43
2021/12/22 16:24:13;;;;;;;6.70;3.25;;;0.90;99.90;;;;;;20647226;28;20041;-43
2021/12/22 16:34:14;;;;;;;6.45;3.40;;;0.80;99.90;;;;;;20648624;28;20046;-43
2021/12/22 16:44:15;;;;;;;13.65;6.25;;;0.80;99.90;;;;;;20650784;28;20132;-43
2021/12/22 16:54:17;;;;;;;11.60;4.00;;;0.80;99.90;;;;;;20648752;28;20057;-43
2021/12/22 17:04:18;;;;;;;9.35;4.55;;;0.70;99.90;;;;;;20649573;28;20050;-43
2021/12/22 17:14:19;;;;;;;7.70;3.55;;;0.70;99.90;;;;;;20648537;28;20275;-44
2021/12/22 17:24:20;;;;;;;11.65;3.88;;;0.70;99.90;;;;;;20658410;28;20038;-44
2021/12/22 17:34:21;;;;;;;16.85;5.50;;;0.70;99.90;;;;;;20656023;28;20053;-44
2021/12/22 17:44:22;;;;;;;9.52;4.53;;;0.70;99.90;;;;;;20656099;28;20296;-44
2021/12/22 17:54:23;;;;;;;12.85;5.80;;;0.60;99.90;;;;;;20650155;28;20038;-43
2021/12/22 18:04:25;;;;;;;10.57;4.15;;;0.50;99.90;;;;;;20660962;28;20050;-43
2021/12/22 18:14:26;;;;;;;15.90;5.03;;;0.50;99.90;;;;;;20668909;28;20038;-43
2021/12/22 18:24:27;;;;;;;10.20;3.50;;;0.40;99.90;;;;;;20666084;28;20030;-43
2021/12/22 18:34:31;;;;;;;10.82;4.22;;;0.40;99.90;;;;;;20665746;28;20049;-43
2021/12/22 18:44:32;;;;;;;9.98;4.65;;;0.40;99.90;;;;;;20673406;28;20044;-43
2021/12/22 18:54:33;;;;;;;6.70;3.40;;;0.50;99.90;;;;;;20680864;28;20049;-43
2021/12/22 19:04:34;;;;;;;9.63;4.05;;;0.40;99.90;;;;;;20679223;28;20042;-43
2021/12/22 19:14:36;;;;;;;12.20;4.30;;;0.50;99.90;;;;;;20686060;28;20037;-44
2021/12/22 19:24:40;;;;;;;10.18;4.35;;;0.50;99.90;;;;;;20675809;28;20041;-44
2021/12/22 19:34:41;;;;;;;10.95;4.40;;;0.60;99.90;;;;;;20675733;28;20052;-43
2021/12/22 19:44:42;;;;;;;10.88;4.28;;;0.60;99.90;;;;;;20670175;28;20034;-44
2021/12/22 19:54:44;;;;;;;14.65;4.55;;;0.60;99.90;;;;;;20681242;28;20030;-43
2021/12/22 20:04:45;;;;;;;13.35;5.35;;;0.60;99.90;;;;;;20668460;28;20049;-44
2021/12/22 20:14:46;;;;;;;8.98;3.75;;;0.60;99.90;;;;;;20663754;28;20505;-44
2021/12/22 20:24:47;;;;;;;8.18;3.40;;;0.60;99.90;;;;;;20662906;28;20033;-43
2021/12/22 20:34:49;;;;;;;13.32;4.55;;;0.70;99.90;;;;;;20666464;28;20041;-43
2021/12/22 20:44:51;;;;;;;11.30;4.05;;;0.70;99.90;;;;;;20666814;28;20035;-43
2021/12/22 20:54:52;;;;;;;8.93;4.15;;;0.70;99.90;;;;;;20664136;28;20057;-44
2021/12/22 21:04:53;;;;;;;9.18;3.95;;;0.80;99.90;;;;;;20658190;28;20368;-43
2021/12/22 21:14:55;;;;;;;14.40;4.72;;;0.80;99.90;;;;;;20661446;28;20398;-43
2021/12/22 21:24:56;;;;;;;10.20;3.17;;;0.70;99.90;;;;;;20645090;28;20041;-44
2021/12/22 21:35:03;;;;;;;9.00;3.80;;;0.80;99.90;;;;;;20656168;28;20494;-43
2021/12/22 21:45:05;;;;;;;7.65;3.53;;;0.80;99.90;;;;;;20663586;28;20042;-43
2021/12/22 21:55:08;;;;;;;10.30;3.78;;;0.70;99.90;;;;;;20667378;28;20672;-43
2021/12/22 22:05:10;;;;;;;9.73;3.97;;;0.80;99.90;;;;;;20662859;28;20518;-43
2021/12/22 22:15:14;;;;;;;9.20;4.18;;;0.80;99.90;;;;;;20654215;28;20049;-43
2021/12/22 22:25:16;;;;;;;13.48;4.55;;;0.80;99.90;;;;;;20653783;28;20041;-44
2021/12/22 22:35:17;;;;;;;11.02;4.40;;;0.80;99.90;;;;;;20649867;28;20043;-44
2021/12/22 22:45:21;;;;;;;10.68;3.90;;;0.90;99.90;;;;;;20650165;28;20145;-43
2021/12/22 22:55:22;;;;;;;9.57;4.95;;;1.00;99.90;;;;;;20651568;28;20038;-43
2021/12/22 23:05:24;;;;;;;9.05;3.45;;;0.90;99.90;;;;;;20660381;28;20248;-43
2021/12/22 23:15:26;;;;;;;8.07;3.30;;;0.90;99.90;;;;;;20657616;28;20030;-43
2021/12/22 23:25:28;;;;;;;10.68;3.15;;;1.00;99.90;;;;;;20651319;28;20081;-43
2021/12/22 23:35:29;;;;;;;8.48;3.90;;;1.00;99.90;;;;;;20650702;28;20034;-43
2021/12/22 23:49:01;;;;;;;9.82;3.40;;;1.10;99.90;;;;;;20647203;28;20521;-44
2021/12/22 23:55:57;;;;;;;7.82;3.53;;;1.00;99.90;;;;;;20648284;28;20387;-43
